Terminal Aerodrome Forecast
Issued by NWS

Home | Current Version | Previous Version | Text Only | Print | Product List | Glossary On
Versions: 1 2 3 4 5 6 7 8 9 10 11 12 13 14 15 16 17 18 19 20 21 22 23 24 25 26
000
FTUS41 KPBZ 020916 AAB
TAFDUJ
TAF AMD
KDUJ 020916Z 0209/0306 00000KT 5SM BR BKN140
      TEMPO 0210/0214 3/4SM BR SKC
     FM021500 27005KT P6SM SCT050=

USA.gov is the U.S. government's official web portal to all federal, state and local government web resources and services.